createdAt,value
2018-10-17T00:01:10.106Z,99.90
2018-10-17T00:03:43.948Z,99.90
2018-10-17T00:06:16.811Z,99.90
2018-10-17T00:08:53.091Z,99.90
2018-10-17T00:11:28.417Z,99.90
2018-10-17T00:14:08.969Z,99.90
2018-10-17T00:16:42.070Z,99.90
2018-10-17T00:19:18.552Z,99.90
2018-10-17T00:21:52.494Z,99.90
2018-10-17T00:24:26.836Z,99.90
2018-10-17T00:26:59.674Z,99.90
2018-10-17T00:29:38.270Z,99.90
2018-10-17T00:32:15.045Z,99.90
2018-10-17T00:37:28.867Z,99.90
2018-10-17T00:45:22.612Z,99.90
2018-10-17T00:47:56.111Z,99.90
2018-10-17T00:50:31.766Z,99.90
2018-10-17T00:53:07.023Z,99.90
2018-10-17T00:55:44.644Z,99.90
2018-10-17T00:58:21.487Z,99.90
2018-10-17T01:03:44.260Z,99.90
2018-10-17T01:06:19.819Z,99.90
2018-10-17T01:08:55.939Z,99.90
2018-10-17T01:14:14.715Z,99.90
2018-10-17T01:19:34.311Z,99.90
2018-10-17T01:27:46.382Z,99.90
2018-10-17T01:30:29.952Z,99.90
2018-10-17T01:33:09.982Z,99.90
2018-10-17T01:41:11.610Z,99.90
2018-10-17T01:43:48.962Z,99.90
2018-10-17T01:46:29.267Z,99.90
2018-10-17T01:57:27.534Z,99.90
2018-10-17T02:00:07.351Z,99.90
2018-10-17T02:02:45.846Z,99.90
2018-10-17T02:05:23.555Z,99.90
2018-10-17T02:10:38.899Z,99.90
2018-10-17T02:13:14.182Z,99.90
2018-10-17T02:18:30.357Z,99.90
2018-10-17T02:21:07.995Z,99.90
2018-10-17T02:31:40.404Z,99.90
2018-10-17T02:34:17.241Z,99.90
2018-10-17T02:39:39.007Z,99.90
2018-10-17T02:44:57.585Z,99.90
2018-10-17T02:47:34.033Z,99.90
2018-10-17T02:52:53.821Z,99.90
2018-10-17T02:58:12.283Z,99.90
2018-10-17T03:00:51.304Z,99.90
2018-10-17T03:06:01.965Z,99.90
2018-10-17T03:08:36.390Z,99.90
2018-10-17T03:11:10.137Z,99.90
2018-10-17T03:13:45.266Z,99.90
2018-10-17T03:16:20.786Z,99.90
2018-10-17T03:18:55.190Z,99.90
2018-10-17T03:21:31.173Z,99.90
2018-10-17T03:24:06.378Z,99.90
2018-10-17T03:26:39.488Z,99.90
2018-10-17T03:29:12.670Z,99.90
2018-10-17T03:31:46.455Z,99.90
2018-10-17T03:34:19.645Z,99.90
2018-10-17T03:36:53.410Z,99.90
2018-10-17T03:39:26.258Z,99.90
2018-10-17T03:41:59.729Z,99.90
2018-10-17T03:44:32.971Z,99.90
2018-10-17T03:47:05.930Z,99.90
2018-10-17T03:49:38.954Z,99.90
2018-10-17T03:52:12.560Z,99.90
2018-10-17T03:54:45.563Z,99.90
2018-10-17T03:57:18.564Z,99.90
2018-10-17T03:59:51.470Z,99.90
2018-10-17T04:02:24.467Z,99.90
2018-10-17T04:04:57.328Z,99.90
2018-10-17T04:07:30.817Z,99.90
2018-10-17T04:10:04.390Z,99.90
2018-10-17T04:12:37.186Z,99.90
2018-10-17T04:15:10.585Z,99.90
2018-10-17T04:17:43.503Z,99.90
2018-10-17T04:20:16.264Z,99.90
2018-10-17T04:22:53.863Z,99.90
2018-10-17T04:25:27.065Z,99.90
2018-10-17T04:27:59.844Z,99.90
2018-10-17T04:30:33.382Z,99.90
2018-10-17T04:33:06.264Z,99.90
2018-10-17T04:35:39.294Z,99.90
2018-10-17T04:38:12.473Z,99.90
2018-10-17T04:40:45.465Z,99.90
2018-10-17T04:43:18.669Z,99.90
2018-10-17T04:45:53.611Z,99.90
2018-10-17T04:48:26.545Z,99.90
2018-10-17T04:50:59.733Z,99.90
2018-10-17T04:53:32.674Z,99.90
2018-10-17T04:56:05.666Z,99.90
2018-10-17T04:58:38.441Z,99.90
2018-10-17T05:01:11.559Z,99.90
2018-10-17T05:03:44.507Z,99.90
2018-10-17T05:06:18.191Z,99.90
2018-10-17T05:08:51.080Z,99.90
2018-10-17T05:11:23.947Z,99.90
2018-10-17T05:13:58.505Z,99.90
2018-10-17T05:16:33.625Z,99.90
2018-10-17T05:19:07.358Z,99.90
2018-10-17T05:21:40.850Z,99.90
2018-10-17T05:24:14.855Z,99.90
2018-10-17T05:26:51.743Z,99.90
2018-10-17T05:29:26.351Z,99.90
2018-10-17T05:32:02.706Z,99.90
2018-10-17T05:34:38.433Z,99.90
2018-10-17T05:37:12.677Z,99.90
2018-10-17T05:39:45.681Z,99.90
2018-10-17T05:42:19.241Z,99.90
2018-10-17T05:44:52.173Z,99.90
2018-10-17T05:47:25.567Z,99.90
2018-10-17T05:49:59.865Z,99.90
2018-10-17T05:52:37.614Z,99.90
2018-10-17T05:55:10.649Z,99.90
2018-10-17T05:57:43.488Z,99.90
2018-10-17T06:00:16.366Z,99.90
2018-10-17T06:02:49.111Z,99.90
2018-10-17T06:05:21.812Z,99.90
2018-10-17T06:07:54.588Z,99.90
2018-10-17T06:10:28.265Z,99.90
2018-10-17T06:13:01.793Z,99.90
2018-10-17T06:15:35.229Z,99.90
2018-10-17T06:18:10.729Z,99.90
2018-10-17T06:20:43.431Z,99.90
2018-10-17T06:23:16.287Z,99.90
2018-10-17T06:25:50.330Z,99.90
2018-10-17T06:28:23.198Z,99.90
2018-10-17T06:30:57.552Z,99.90
2018-10-17T06:33:30.398Z,99.90
2018-10-17T06:36:03.261Z,99.90
2018-10-17T06:38:36.419Z,99.90
2018-10-17T06:41:09.707Z,99.90
2018-10-17T06:43:42.608Z,99.90
2018-10-17T06:46:15.853Z,99.90
2018-10-17T06:48:50.016Z,99.90
2018-10-17T06:51:22.806Z,99.90
2018-10-17T06:53:55.549Z,99.90
2018-10-17T06:56:28.527Z,99.90
2018-10-17T06:59:02.335Z,99.90
2018-10-17T07:01:35.311Z,99.90
2018-10-17T07:04:08.488Z,99.90
2018-10-17T07:06:42.740Z,99.90
2018-10-17T07:09:16.143Z,99.90
2018-10-17T07:11:51.321Z,99.90
2018-10-17T07:14:25.024Z,99.90
2018-10-17T07:16:58.088Z,99.90
2018-10-17T07:19:31.259Z,99.90
2018-10-17T07:22:04.351Z,99.90
2018-10-17T07:24:37.435Z,99.90
2018-10-17T07:27:11.094Z,99.90
2018-10-17T07:29:44.401Z,99.90
2018-10-17T07:32:17.521Z,99.90
2018-10-17T07:34:50.864Z,99.90
2018-10-17T07:37:23.905Z,99.90
2018-10-17T07:39:57.135Z,99.90
2018-10-17T07:42:32.159Z,99.90
2018-10-17T07:45:08.965Z,99.90
2018-10-17T07:47:45.286Z,99.90
2018-10-17T07:50:19.312Z,99.90
2018-10-17T07:52:57.044Z,99.90
2018-10-17T07:55:32.331Z,99.90
2018-10-17T07:58:06.476Z,99.90
2018-10-17T08:00:39.454Z,99.90
2018-10-17T08:03:13.535Z,99.90
2018-10-17T08:05:48.296Z,99.90
2018-10-17T08:08:21.998Z,99.90
2018-10-17T08:10:55.049Z,99.90
2018-10-17T08:13:27.796Z,99.90
2018-10-17T08:16:00.704Z,99.90
2018-10-17T08:18:33.607Z,99.90
2018-10-17T08:21:06.696Z,99.90
2018-10-17T08:23:40.535Z,99.90
2018-10-17T08:26:13.327Z,99.90
2018-10-17T08:28:46.185Z,99.90
2018-10-17T08:31:19.065Z,99.90
2018-10-17T08:33:54.819Z,99.90
2018-10-17T08:36:28.019Z,99.90
2018-10-17T08:39:01.732Z,99.90
2018-10-17T08:41:36.655Z,99.90
2018-10-17T08:44:10.989Z,99.90
2018-10-17T08:46:44.099Z,99.90
2018-10-17T08:49:17.870Z,99.90
2018-10-17T08:51:51.517Z,99.90
2018-10-17T08:54:24.284Z,99.90
2018-10-17T08:56:57.716Z,99.90
2018-10-17T08:59:30.722Z,99.90
2018-10-17T09:02:04.018Z,99.90
2018-10-17T09:04:36.971Z,99.90
2018-10-17T09:07:11.548Z,99.90
2018-10-17T09:09:44.697Z,99.90
2018-10-17T09:12:17.779Z,99.90
2018-10-17T09:14:51.116Z,99.90
2018-10-17T09:17:25.074Z,99.90
2018-10-17T09:19:59.571Z,99.90
2018-10-17T09:22:32.680Z,99.90
2018-10-17T09:25:06.623Z,99.90
2018-10-17T09:27:39.930Z,99.90
2018-10-17T09:30:14.990Z,99.90
2018-10-17T09:32:48.169Z,99.90
2018-10-17T09:35:21.325Z,99.90
2018-10-17T09:37:54.893Z,99.90
2018-10-17T09:40:28.141Z,99.90
2018-10-17T09:43:00.977Z,99.90
2018-10-17T09:45:34.084Z,99.90
2018-10-17T09:48:07.063Z,99.90
2018-10-17T09:50:40.967Z,99.90
2018-10-17T09:53:13.806Z,99.90
2018-10-17T09:55:46.710Z,99.90
2018-10-17T09:58:20.608Z,99.90
2018-10-17T10:00:58.062Z,99.90
2018-10-17T10:03:31.153Z,99.90
2018-10-17T10:06:04.611Z,99.90
2018-10-17T10:08:37.443Z,99.90
2018-10-17T10:11:10.520Z,99.90
2018-10-17T10:13:43.663Z,99.90
2018-10-17T10:16:16.453Z,99.90
2018-10-17T10:18:49.228Z,99.90
2018-10-17T10:21:21.963Z,99.90
2018-10-17T10:23:55.037Z,99.90
2018-10-17T10:26:30.768Z,99.90
2018-10-17T10:29:03.759Z,99.90
2018-10-17T10:31:36.534Z,99.90
2018-10-17T10:34:10.520Z,99.90
2018-10-17T10:36:43.408Z,99.90
2018-10-17T10:39:16.289Z,99.90
2018-10-17T10:41:50.211Z,99.90
2018-10-17T10:44:23.212Z,99.90
2018-10-17T10:46:57.899Z,99.90
2018-10-17T10:49:30.655Z,99.90
2018-10-17T10:52:03.713Z,99.90
2018-10-17T10:54:36.537Z,99.90
2018-10-17T10:57:09.918Z,99.90
2018-10-17T10:59:44.721Z,99.90
2018-10-17T11:02:18.174Z,99.90
2018-10-17T11:04:51.936Z,99.90
2018-10-17T11:07:26.498Z,99.90
2018-10-17T11:10:00.205Z,99.90
2018-10-17T11:12:33.200Z,99.90
2018-10-17T11:15:06.490Z,99.90
2018-10-17T11:17:40.265Z,99.90
2018-10-17T11:20:15.504Z,99.90
2018-10-17T11:22:49.974Z,99.90
2018-10-17T11:25:25.280Z,99.90
2018-10-17T11:27:58.753Z,99.90
2018-10-17T11:30:32.376Z,99.90
2018-10-17T11:33:05.782Z,99.90
2018-10-17T11:35:39.622Z,99.90
2018-10-17T11:38:13.246Z,99.90
2018-10-17T11:40:46.757Z,99.90
2018-10-17T11:43:20.242Z,99.90
2018-10-17T11:45:53.880Z,99.90
2018-10-17T11:48:28.120Z,99.90
2018-10-17T11:51:01.677Z,99.90
2018-10-17T11:53:34.983Z,99.90
2018-10-17T11:56:08.630Z,99.90
2018-10-17T11:58:42.794Z,99.90
2018-10-17T12:01:16.844Z,99.90
2018-10-17T12:03:50.865Z,99.90
2018-10-17T12:06:23.998Z,99.90
2018-10-17T12:08:57.459Z,99.90
2018-10-17T12:11:31.540Z,99.90
2018-10-17T12:14:05.491Z,99.90
2018-10-17T12:16:38.826Z,99.90
2018-10-17T12:19:13.524Z,99.90
2018-10-17T12:21:47.114Z,99.90
2018-10-17T12:24:20.036Z,99.90
2018-10-17T12:26:52.862Z,99.90
2018-10-17T12:29:25.821Z,99.90
2018-10-17T12:31:58.546Z,99.90
2018-10-17T12:34:31.908Z,99.90
2018-10-17T12:37:04.774Z,99.90
2018-10-17T12:39:37.828Z,99.90
2018-10-17T12:42:10.727Z,99.90
2018-10-17T12:44:43.589Z,99.90
2018-10-17T12:47:16.413Z,99.90
2018-10-17T12:49:49.985Z,99.90
2018-10-17T12:52:23.128Z,99.90
2018-10-17T12:54:56.019Z,99.90
2018-10-17T12:57:29.164Z,99.90
2018-10-17T13:00:02.854Z,99.90
2018-10-17T13:02:35.768Z,99.90
2018-10-17T13:05:09.485Z,99.90
2018-10-17T13:07:42.421Z,99.90
2018-10-17T13:10:15.269Z,99.90
2018-10-17T13:12:48.042Z,99.90
2018-10-17T13:15:20.883Z,99.90
2018-10-17T13:17:53.848Z,99.90
2018-10-17T13:20:26.735Z,99.90
2018-10-17T13:22:59.724Z,99.90
2018-10-17T13:25:32.633Z,99.90
2018-10-17T13:28:05.401Z,99.90
2018-10-17T13:30:38.172Z,99.90
2018-10-17T13:33:10.871Z,99.90
2018-10-17T13:35:43.640Z,99.90
2018-10-17T13:38:16.339Z,99.90
2018-10-17T13:40:49.247Z,99.90
2018-10-17T13:43:23.465Z,99.90
2018-10-17T13:45:56.265Z,99.90
2018-10-17T13:48:30.948Z,99.90
2018-10-17T13:51:03.666Z,99.90
2018-10-17T13:53:36.609Z,99.90
2018-10-17T13:56:09.554Z,99.90
2018-10-17T13:58:42.598Z,99.90
2018-10-17T14:01:15.729Z,99.90
2018-10-17T14:03:48.495Z,99.90
2018-10-17T14:06:21.455Z,99.90
2018-10-17T14:08:54.259Z,99.90
2018-10-17T14:11:27.202Z,99.90
2018-10-17T14:14:00.079Z,99.90
2018-10-17T14:16:33.100Z,99.90
2018-10-17T14:19:06.241Z,99.90
2018-10-17T14:21:39.176Z,99.90
2018-10-17T14:24:12.710Z,99.90
2018-10-17T14:26:45.630Z,99.90
2018-10-17T14:29:18.570Z,99.90
2018-10-17T14:31:51.301Z,99.90
2018-10-17T14:34:26.555Z,99.90
2018-10-17T14:36:59.414Z,99.90
2018-10-17T14:39:32.685Z,99.90
2018-10-17T14:42:06.245Z,99.90
2018-10-17T14:44:39.926Z,99.90
2018-10-17T14:47:12.648Z,99.90
2018-10-17T14:49:45.406Z,99.90
2018-10-17T14:52:18.159Z,99.90
2018-10-17T14:54:51.119Z,99.90
2018-10-17T14:57:23.959Z,99.90
2018-10-17T14:59:56.699Z,99.90
2018-10-17T15:02:29.451Z,99.90
2018-10-17T15:05:02.619Z,99.90
2018-10-17T15:07:35.469Z,99.90
2018-10-17T15:10:08.738Z,99.90
2018-10-17T15:12:42.008Z,99.90
2018-10-17T15:15:15.599Z,99.90
2018-10-17T15:17:48.383Z,99.90
2018-10-17T15:20:22.531Z,99.90
2018-10-17T15:22:55.275Z,99.90
2018-10-17T15:25:28.059Z,99.90
2018-10-17T15:28:00.883Z,99.90
2018-10-17T15:30:33.927Z,99.90
2018-10-17T15:33:10.551Z,99.90
2018-10-17T15:35:44.256Z,99.90
2018-10-17T15:38:18.836Z,99.90
2018-10-17T15:40:51.531Z,99.90
2018-10-17T15:43:24.570Z,99.90
2018-10-17T15:45:58.146Z,99.90
2018-10-17T15:48:31.484Z,99.90
2018-10-17T15:51:06.340Z,99.90
2018-10-17T15:53:39.355Z,99.90
2018-10-17T15:56:12.229Z,99.90
2018-10-17T15:58:45.035Z,99.90
2018-10-17T16:01:17.867Z,99.90
2018-10-17T16:03:52.925Z,99.90
2018-10-17T16:06:25.703Z,99.90
2018-10-17T16:08:58.525Z,99.90
2018-10-17T16:11:31.368Z,99.90
2018-10-17T16:14:04.505Z,99.90
2018-10-17T16:16:37.481Z,99.90
2018-10-17T16:19:12.609Z,99.90
2018-10-17T16:21:45.913Z,99.90
2018-10-17T16:24:18.839Z,99.90
2018-10-17T16:26:51.765Z,99.90
2018-10-17T16:29:24.785Z,99.90
2018-10-17T16:31:58.429Z,99.90
2018-10-17T16:34:31.359Z,99.90
2018-10-17T16:37:04.457Z,99.90
2018-10-17T16:39:39.184Z,99.90
2018-10-17T16:42:13.137Z,99.90
2018-10-17T16:44:46.039Z,99.90
2018-10-17T16:47:20.348Z,99.90
2018-10-17T16:49:54.727Z,99.90
2018-10-17T16:52:28.757Z,99.90
2018-10-17T16:55:02.722Z,99.90
2018-10-17T16:57:35.584Z,99.90
2018-10-17T17:00:09.742Z,99.90
2018-10-17T17:02:42.645Z,99.90
2018-10-17T17:05:17.017Z,99.90
2018-10-17T17:07:49.952Z,99.90
2018-10-17T17:10:22.882Z,99.90
2018-10-17T17:12:56.666Z,99.90
2018-10-17T17:15:29.411Z,99.90
2018-10-17T17:18:03.065Z,99.90
2018-10-17T17:20:35.956Z,99.90
2018-10-17T17:23:09.285Z,99.90
2018-10-17T17:25:44.500Z,99.90
2018-10-17T17:28:17.431Z,99.90
2018-10-17T17:30:51.256Z,99.90
2018-10-17T17:33:24.197Z,99.90
2018-10-17T17:35:58.060Z,99.90
2018-10-17T17:38:31.360Z,99.90
2018-10-17T17:41:07.675Z,99.90
2018-10-17T17:43:40.615Z,99.90
2018-10-17T17:46:13.681Z,99.90
2018-10-17T17:48:46.557Z,99.90
2018-10-17T17:51:19.506Z,99.90
2018-10-17T17:53:52.349Z,99.90
2018-10-17T17:56:25.144Z,99.90
2018-10-17T17:58:58.385Z,99.90
2018-10-17T18:01:31.307Z,99.90
2018-10-17T18:04:05.064Z,99.90
2018-10-17T18:06:37.983Z,99.90
2018-10-17T18:09:15.015Z,99.90
2018-10-17T18:11:48.183Z,99.90
2018-10-17T18:14:21.119Z,99.90
2018-10-17T18:16:54.129Z,99.90
2018-10-17T18:19:27.003Z,99.90
2018-10-17T18:21:59.987Z,99.90
2018-10-17T18:24:33.876Z,99.90
2018-10-17T18:27:06.973Z,99.90
2018-10-17T18:29:39.858Z,99.90
2018-10-17T18:32:12.703Z,99.90
2018-10-17T18:34:45.976Z,99.90
2018-10-17T18:37:18.876Z,99.90
2018-10-17T18:39:52.623Z,99.90
2018-10-17T18:42:26.077Z,99.90
2018-10-17T18:45:00.062Z,99.90
2018-10-17T18:47:34.860Z,99.90
2018-10-17T18:50:08.303Z,99.90
2018-10-17T18:52:41.691Z,99.90
2018-10-17T18:55:14.596Z,99.90
2018-10-17T18:57:47.489Z,99.90
2018-10-17T19:00:20.401Z,99.90
2018-10-17T19:02:53.362Z,99.90
2018-10-17T19:05:26.208Z,99.90
2018-10-17T19:07:59.357Z,99.90
2018-10-17T19:10:32.249Z,99.90
2018-10-17T19:13:05.136Z,99.90
2018-10-17T19:15:38.276Z,99.90
2018-10-17T19:18:11.341Z,99.90
2018-10-17T19:20:44.244Z,99.90
2018-10-17T19:23:17.548Z,99.90
2018-10-17T19:25:50.512Z,99.90
2018-10-17T19:28:23.703Z,99.90
2018-10-17T19:30:56.907Z,99.90
2018-10-17T19:33:30.341Z,99.90
2018-10-17T19:36:03.387Z,99.90
2018-10-17T19:38:36.394Z,99.90
2018-10-17T19:41:09.635Z,99.90
2018-10-17T19:43:42.538Z,99.90
2018-10-17T19:46:15.443Z,99.90
2018-10-17T19:48:48.402Z,99.90
2018-10-17T19:51:23.076Z,99.90
2018-10-17T19:53:55.958Z,99.90
2018-10-17T19:56:28.983Z,99.90
2018-10-17T19:59:01.998Z,99.90
2018-10-17T20:01:37.139Z,99.90
2018-10-17T20:04:10.242Z,99.90
2018-10-17T20:06:43.586Z,99.90
2018-10-17T20:09:17.647Z,99.90
2018-10-17T20:11:50.621Z,99.90
2018-10-17T20:14:24.604Z,99.90
2018-10-17T20:16:57.407Z,99.90
2018-10-17T20:19:31.489Z,99.90
2018-10-17T20:22:04.941Z,99.90
2018-10-17T20:24:37.718Z,99.90
2018-10-17T20:27:11.170Z,99.90
2018-10-17T20:29:44.103Z,99.90
2018-10-17T20:32:16.853Z,99.90
2018-10-17T20:34:50.905Z,99.90
2018-10-17T20:37:23.862Z,99.90
2018-10-17T20:39:58.626Z,99.90
2018-10-17T20:42:31.426Z,99.90
2018-10-17T20:45:11.087Z,99.90
2018-10-17T20:47:44.269Z,99.90
2018-10-17T20:50:17.634Z,99.90
2018-10-17T20:52:51.104Z,99.90
2018-10-17T20:55:23.993Z,99.90
2018-10-17T20:57:57.865Z,99.90
2018-10-17T21:00:30.633Z,99.90
2018-10-17T21:03:04.591Z,99.90
2018-10-17T21:06:02.168Z,99.90
2018-10-17T21:08:44.223Z,99.90
2018-10-17T21:14:19.590Z,99.90
2018-10-17T21:19:58.729Z,99.90
2018-10-17T21:22:31.937Z,99.90
2018-10-17T21:25:05.606Z,99.90
2018-10-17T21:27:38.342Z,99.60
2018-10-17T21:30:12.663Z,97.80
2018-10-17T21:32:45.547Z,98.00
2018-10-17T21:35:18.349Z,97.80
2018-10-17T21:37:52.534Z,97.60
2018-10-17T21:40:26.560Z,96.30
2018-10-17T21:43:01.877Z,96.50
2018-10-17T21:45:35.812Z,97.00
2018-10-17T21:48:09.645Z,96.70
2018-10-17T21:50:43.423Z,95.00
2018-10-17T21:53:16.376Z,93.60
2018-10-17T21:55:49.214Z,95.20
2018-10-17T21:58:22.189Z,93.90
2018-10-17T22:00:55.976Z,90.30
2018-10-17T22:03:29.577Z,90.70
2018-10-17T22:06:02.507Z,92.90
2018-10-17T22:08:36.542Z,93.00
2018-10-17T22:11:10.394Z,92.70
2018-10-17T22:13:45.878Z,92.70
2018-10-17T22:16:20.733Z,92.80
2018-10-17T22:18:53.706Z,94.20
2018-10-17T22:21:26.617Z,93.20
2018-10-17T22:24:00.575Z,94.20
2018-10-17T22:26:33.298Z,93.40
2018-10-17T22:29:11.401Z,93.10
2018-10-17T22:31:46.012Z,93.40
2018-10-17T22:34:22.772Z,93.00
2018-10-17T22:36:56.265Z,93.50
2018-10-17T22:39:29.015Z,94.10
2018-10-17T22:42:02.737Z,95.10
2018-10-17T22:44:35.527Z,92.40
2018-10-17T22:47:08.882Z,91.60
2018-10-17T22:49:42.688Z,91.70
2018-10-17T22:52:16.393Z,92.80
2018-10-17T22:54:50.273Z,93.50
2018-10-17T22:57:23.050Z,94.30
2018-10-17T22:59:57.996Z,94.80
2018-10-17T23:02:30.830Z,95.40
2018-10-17T23:05:05.227Z,97.60
2018-10-17T23:07:37.891Z,96.70
2018-10-17T23:10:11.447Z,97.30
2018-10-17T23:12:46.023Z,99.60
2018-10-17T23:15:20.253Z,99.60
2018-10-17T23:17:55.458Z,99.90
2018-10-17T23:20:29.037Z,99.90
2018-10-17T23:23:01.768Z,99.90
2018-10-17T23:25:34.475Z,99.90
2018-10-17T23:28:08.076Z,99.90
2018-10-17T23:30:40.954Z,99.90
2018-10-17T23:36:01.880Z,99.90
2018-10-17T23:38:35.195Z,99.90
2018-10-17T23:41:09.530Z,99.90
2018-10-17T23:43:44.345Z,99.90
2018-10-17T23:46:18.029Z,99.90
2018-10-17T23:48:51.570Z,99.90
2018-10-17T23:51:25.173Z,99.90
2018-10-17T23:53:58.679Z,99.90
2018-10-17T23:56:32.035Z,99.90
2018-10-17T23:59:05.315Z,99.90
